El Paso, TX

8:31 PM MDT on September 03, 2015 (GMT -0600)
APRSWXNET | | Change Station
CLOSE
Current Station
Personal Weather Station
Location: Chaparral, NM
Elevation: 3943 ft
Nearby Weather Stations

Elev 3943 ft 32.00 °N, 106.57 °W | Updated 30 minutes ago

Overcast
Overcast
81 °F
Feels Like 81 °F
N
0
Wind Variable Wind from West
Gusts 0.0 mph

Today
High -- | Low -- °F
--% Chance of Precip.
Yesterday
High -- | Low -- °F
Precip. -- in
6:42 AM 7:28 PM
Waning Gibbous, 64% visible
Pressure 29.75 in
Visibility 10.0 miles
Clouds Few 8000 ft
Scattered Clouds 14000 ft
Overcast 24000 ft
Heat Index 81 °F
Dew Point 55 °F
Humidity 41%
Rainfall in
Snow Depth Not available.
UV 0 out of 12
Pollen 9.30 out of 12
Air Quality Not available.
Flu Activity Not available.
METAR KELP 040151Z 31010KT 10SM FEW080 SCT140 OVC240 29/10 A2998 RMK AO2 SLP074 T02890100
Pressure 29.75 in
Visibility 10.0 miles
Clouds Few 8000 ft
Scattered Clouds 14000 ft
Overcast 24000 ft
Heat Index 81 °F
Dew Point 55 °F
Humidity 41%
Rainfall in
Snow Depth Not available.
UV 0 out of 12
Pollen 9.30 out of 12
Air Quality Not available.
Flu Activity Not available.
METAR KELP 040151Z 31010KT 10SM FEW080 SCT140 OVC240 29/10 A2998 RMK AO2 SLP074 T02890100

10-Day Weather Forecast

×

Almanac

Astronomy

Sep. 03, 2015 Rise Set
Actual Time
Civil Twilight
Nautical Twilight
Astronomical Twilight
Moon
Length of Visible Light
Length of Day
Tomorrow will be .
, % of the Moon is Illuminated

Today's Extremes

State Highs State Lows

Community

WunderPhotos

Upload Photos

1,852,106 photos uploaded!

WunderBlogs® & News

Nearby

Air Quality

  Air Quality AQ Index Pollutant
Not available.

Snow Depth

Station Depth Elevation

Earthquake Activity

City Distance Mag. Time & Date
Minimum magnitude displayed is 2.5.

Coastal Water Temperatures

Place Temperature

Stations

Nearby Weather Stations

Station Location Temp. Windchill Dew Point Humidity Wind Precip. Elev Updated Type